• Join FlightAware (Why Join?)
  • Login
  • US Flag 
Trick or treat! (Boo!!) 
06:57AM EDT


 

Airport Tracker/Info


-or-


 

Live Flight TrackerFlight Track Log ✈ UAL1177 ✈ 24-May-2013 ✈ KEWR - KDFW

Flight Track Log - Related Links

Times and Time Zones

All times are in EDT time to prevent confusion due to time zone crossing. See the UAL1177 flight status page for this flight to view local times or setup timezone preferences in your user account.

Time Position Orientation Groundspeed Altitude Reporting Facility
EDT Latitude Longitude Course Direction KTS MPH feet Rate Location/Type
01:53PM 40.7260 -74.1230 41° Northeast 210 242 2,200  Level FlightAware
01:53PM 40.7417 -74.1011 47° Northeast 213 245 3,200 2,520 Climbing FlightAware ADS-B
01:53PM 40.7445 -74.0996 22° Northeast 212 244 3,300 2,220 Climbing FlightAware ADS-B
01:53PM 40.7491 -74.0981 14° North 212 244 3,500 2,640 Climbing FlightAware ADS-B
01:53PM 40.7527 -74.0976 North 214 246 3,700 1,980 Climbing FlightAware ADS-B
01:53PM 40.7576 -74.0980 356° North 220 253 3,800 960 Climbing FlightAware ADS-B
01:53PM 40.7656 -74.1010 344° North 227 261 3,900 1,080 Climbing FlightAware ADS-B
01:53PM 40.7695 -74.1039 331° Northwest 239 275 4,000 1,500 Climbing FlightAware ADS-B
01:53PM 40.7731 -74.1075 323° Northwest 245 282 4,100 1,800 Climbing FlightAware ADS-B
01:54PM 40.7771 -74.1133 312° West 250 288 4,300 1,980 Climbing FlightAware ADS-B
01:54PM 40.7792 -74.1171 306° West 254 292 4,400 2,520 Climbing FlightAware ADS-B
01:54PM 40.7845 -74.1341 292° West 262 302 4,900 2,220 Climbing FlightAware ADS-B
01:54PM 40.7852 -74.1409 278° West 261 300 5,000 1,020 Climbing FlightAware ADS-B
01:54PM 40.7793 -74.1870 260° West 260 299 5,500 1,980 Climbing FlightAware ADS-B
01:55PM 40.7711 -74.2379 258° West 263 303 7,100 3,000 Climbing FlightAware ADS-B
01:55PM 40.7670 -74.2651 259° West 267 307 8,000 3,300 Climbing FlightAware ADS-B
01:55PM 40.7645 -74.2824 259° West 269 310 8,600 3,120 Climbing FlightAware ADS-B
01:55PM 40.7635 -74.2967 265° West 271 312 9,000 2,760 Climbing FlightAware ADS-B
01:56PM 40.7640 -74.3032 276° West 274 315 9,200 2,220 Climbing FlightAware ADS-B
01:56PM 40.7651 -74.3094 283° West 278 320 9,300 2,520 Climbing FlightAware ADS-B
01:56PM 40.7708 -74.3248 296° West 285 328 9,800 3,000 Climbing FlightAware ADS-B
01:56PM 40.7776 -74.3361 308° West 291 335 10,200 1,680 Climbing FlightAware ADS-B
01:56PM 40.8055 -74.3784 311° West 319 367 10,900 1,800 Climbing FlightAware ADS-B
01:57PM 40.8355 -74.4244 311° West 336 387 12,000 2,160 Climbing FlightAware ADS-B
01:57PM 40.8530 -74.4515 310° West 329 379 12,600 2,220 Climbing FlightAware ADS-B
01:57PM 40.8687 -74.4758 311° West 348 400 13,200 2,580 Climbing FlightAware ADS-B
01:58PM 40.9028 -74.5288 310° West 352 405 14,700 2,460 Climbing FlightAware ADS-B
01:58PM 40.9267 -74.5646 311° West 358 412 15,500 1,860 Climbing FlightAware ADS-B
01:59PM 40.9633 -74.6167 313° West 372 428 16,400 1,680 Climbing FlightAware ADS-B
01:59PM 40.9753 -74.6334 314° West 376 433 16,700 1,980 Climbing FlightAware ADS-B
01:59PM 40.9845 -74.6471 312° West 380 437 17,000 1,560 Climbing FlightAware ADS-B
01:59PM 40.9915 -74.6613 303° West 375 432 17,100 420 Climbing FlightAware ADS-B
01:59PM 40.9962 -74.6760 293° West 368 423 17,100  Level FlightAware ADS-B
02:00PM 40.9986 -74.7061 276° West 350 403 17,100  Level FlightAware ADS-B
02:00PM 40.9959 -74.7224 258° West 339 390 17,100  Level FlightAware ADS-B
02:00PM 40.9924 -74.7349 250° West 335 386 17,100  Level FlightAware ADS-B
02:00PM 40.9866 -74.7565 250° West 336 387 17,100  Level FlightAware ADS-B
02:01PM 40.9743 -74.8159 255° West 338 389 17,100  Level FlightAware ADS-B
02:01PM 40.9644 -74.8771 258° West 339 390 17,100  Level FlightAware ADS-B
02:02PM 40.9541 -74.9417 258° West 344 396 17,100 -120 Level FlightAware ADS-B
02:02PM 40.9436 -75.0055 258° West 345 397 17,000 540 Descending FlightAware ADS-B
02:03PM 40.9319 -75.0743 257° West 351 404 17,700 1,680 Climbing FlightAware ADS-B
02:03PM 40.9211 -75.1368 257° West 355 409 18,800 2,100 Climbing FlightAware ADS-B
02:04PM 40.9143 -75.1744 257° West 357 411 19,400 2,100 Climbing FlightAware ADS-B
02:04PM 40.9012 -75.2393 255° West 364 419 20,500 2,160 Climbing FlightAware ADS-B
02:05PM 40.8876 -75.3054 255° West 371 427 21,600 2,340 Climbing FlightAware ADS-B
02:05PM 40.8740 -75.3718 255° West 368 423 22,900 2,580 Climbing FlightAware ADS-B
02:05PM 40.8659 -75.4098 254° West 362 417 23,700 2,460 Climbing FlightAware ADS-B
02:06PM 40.8507 -75.4737 253° West 360 414 24,900 1,620 Climbing FlightAware ADS-B
02:06PM 40.8354 -75.5380 253° West 372 428 25,400 780 Climbing FlightAware ADS-B
02:07PM 40.8195 -75.6047 253° West 389 448 25,700 900 Climbing FlightAware ADS-B
02:07PM 40.8002 -75.6861 253° West 399 459 26,400 1,260 Climbing FlightAware ADS-B
02:08PM 40.7833 -75.7574 253° West 403 464 27,100 1,380 Climbing FlightAware ADS-B
02:08PM 40.7648 -75.8349 253° West 408 470 27,900 1,260 Climbing FlightAware ADS-B
02:09PM 40.7465 -75.9105 252° West 411 473 28,500 1,140 Climbing FlightAware ADS-B
02:10PM 40.7290 -75.9827 252° West 416 479 29,100 1,200 Climbing FlightAware ADS-B
02:10PM 40.7184 -76.0261 252° West 416 479 29,500 1,500 Climbing FlightAware ADS-B
02:10PM 40.6984 -76.0970 250° West 413 475 30,300 1,140 Climbing FlightAware ADS-B
02:11PM 40.6748 -76.1802 250° West 419 482 30,800 540 Climbing FlightAware ADS-B
02:12PM 40.6470 -76.2785 250° West 435 501 31,000 480 Climbing FlightAware ADS-B
02:12PM 40.6256 -76.3547 250° West 443 510 31,400 1,200 Climbing FlightAware ADS-B
02:13PM 40.5999 -76.4469 250° West 438 504 32,400 1,860 Climbing FlightAware ADS-B
02:13PM 40.5778 -76.5257 250° West 421 484 33,600 2,160 Climbing FlightAware ADS-B
02:14PM 40.5460 -76.6364 249° West 395 455 35,300 1,620 Climbing FlightAware ADS-B
02:15PM 40.5214 -76.7216 249° West 388 447 36,000 600 Climbing FlightAware ADS-B
02:15PM 40.5022 -76.7893 250° West 389 448 36,000  Level FlightAware ADS-B
02:16PM 40.4820 -76.8602 249° West 390 449 36,000  Level FlightAware ADS-B
02:16PM 40.4628 -76.9268 249° West 392 451 36,000  Level FlightAware ADS-B
02:17PM 40.4450 -76.9880 249° West 392 451 36,000  Level FlightAware
02:17PM 40.4170 -77.0860 249° West 394 453 36,000  Level FlightAware
02:18PM 40.3920 -77.1710 249° West 395 455 36,000  Level FlightAware
02:19PM 40.3650 -77.2640 249° West 398 458 36,000  Level FlightAware
02:20PM 40.3350 -77.3650 249° West 400 460 36,000  Level FlightAware
02:20PM 40.3080 -77.4590 249° West 404 465 36,000  Level FlightAware
02:21PM 40.2800 -77.5540 249° West 407 468 36,000  Level FlightAware
02:22PM 40.2530 -77.6460 249° West 409 471 36,000  Level FlightAware
02:22PM 40.2230 -77.7440 248° West 411 473 36,000  Level FlightAware
02:23PM 40.1940 -77.8420 249° West 413 475 36,000  Level FlightAware
02:24PM 40.1720 -77.9170 249° West 414 476 36,000  Level FlightAware
02:24PM 40.1377 -78.0304 248° West 416 479 36,000  Level FlightAware ADS-B
02:25PM 40.1101 -78.1220 249° West 416 479 36,000  Level FlightAware ADS-B
02:25PM 40.0870 -78.1985 248° West 416 479 36,000  Level FlightAware ADS-B
02:27PM 40.0420 -78.3460 248° West 418 481 36,000  Level FlightAware
02:27PM 40.0140 -78.4390 249° West 420 483 36,000  Level FlightAware
02:28PM 39.9870 -78.5250 248° West 422 486 36,000  Level FlightAware
02:29PM 39.9510 -78.6440 248° West 422 486 36,000  Level FlightAware
02:29PM 39.9240 -78.7320 248° West 423 487 36,000  Level FlightAware
02:30PM 39.8990 -78.8130 248° West 422 486 36,000  Level FlightAware
02:31PM 39.8610 -78.9350 248° West 421 484 36,000  Level FlightAware
02:31PM 39.8290 -79.0370 248° West 421 484 36,000  Level FlightAware
02:32PM 39.8000 -79.1310 248° West 421 484 36,000  Level FlightAware
02:33PM 39.7700 -79.2250 247° West 421 484 36,000  Level FlightAware
02:34PM 39.7380 -79.3290 248° West 420 483 36,000  Level FlightAware
02:34PM 39.7070 -79.4260 247° West 418 481 36,000  Level FlightAware
02:35PM 39.6750 -79.5270 248° West 420 483 36,000  Level FlightAware
02:36PM 39.6450 -79.6200 247° West 421 484 36,000  Level FlightAware
02:36PM 39.6140 -79.7190 248° West 425 489 36,000  Level FlightAware
02:37PM 39.5800 -79.8240 247° West 433 498 36,000  Level FlightAware
02:38PM 39.5490 -79.9190 247° West 437 503 36,000  Level FlightAware
02:38PM 39.5160 -80.0220 247° West 438 504 36,000  Level FlightAware
02:39PM 39.4820 -80.1280 247° West 439 505 36,000  Level FlightAware
02:40PM 39.4500 -80.2270 247° West 441 507 36,000  Level FlightAware
02:42PM 39.3650 -80.4860 247° West 444 511 36,000  Level FlightAware
02:42PM 39.3310 -80.5910 247° West 444 511 36,000  Level FlightAware
02:43PM 39.2920 -80.7070 247° West 445 512 36,000  Level FlightAware
02:44PM 39.2600 -80.8040 247° West 445 512 36,000  Level FlightAware
02:45PM 39.2240 -80.9120 247° West 446 513 36,000  Level FlightAware
02:45PM 39.1930 -81.0040 247° West 446 513 36,000  Level FlightAware
02:46PM 39.1610 -81.1010 247° West 447 514 36,000  Level FlightAware
02:47PM 39.1240 -81.2090 246° West 446 513 36,000  Level FlightAware
02:47PM 39.0920 -81.3040 247° West 433 498 36,000  Level FlightAware
02:48PM 39.0590 -81.4040 247° West 429 494 36,000  Level FlightAware
02:49PM 39.0260 -81.5010 246° West 427 491 36,000  Level FlightAware
02:49PM 38.9920 -81.5980 246° West 426 490 36,000  Level FlightAware
02:50PM 38.9630 -81.6820 246° West 427 491 36,000  Level FlightAware
02:51PM 38.9250 -81.7920 246° West 432 497 36,000  Level FlightAware
02:51PM 38.8910 -81.8920 246° West 433 498 36,000  Level FlightAware
02:52PM 38.8580 -81.9870 246° West 433 498 36,000  Level FlightAware
02:53PM 38.8240 -82.0850 246° West 431 496 36,000  Level FlightAware
02:54PM 38.7880 -82.1900 246° West 431 496 36,000  Level FlightAware
02:54PM 38.7550 -82.2840 246° West 431 496 36,000  Level FlightAware
02:55PM 38.7230 -82.3760 246° West 431 496 36,000  Level FlightAware
02:56PM 38.6550 -82.5650 245° Southwest 432 497 36,000  Level FlightAware
02:57PM 38.6200 -82.6670 246° West 433 498 36,000  Level FlightAware
02:58PM 38.5880 -82.7570 246° West 435 501 36,000  Level FlightAware
02:58PM 38.5480 -82.8680 245° Southwest 437 503 36,000  Level FlightAware
02:59PM 38.5120 -82.9710 246° West 436 502 36,000  Level FlightAware
03:00PM 38.4930 -83.0220 245° Southwest 436 502 36,000  Level FlightAware
03:01PM 38.4390 -83.1730 245° Southwest 434 499 36,000  Level FlightAware
03:01PM 38.4020 -83.2760 245° Southwest 433 498 36,000  Level FlightAware
03:02PM 38.3610 -83.3900 245° Southwest 431 496 36,000  Level FlightAware
03:03PM 38.3220 -83.4930 244° Southwest 431 496 36,000  Level FlightAware
03:04PM 38.2850 -83.5980 246° West 429 494 36,000  Level FlightAware
03:05PM 38.2410 -83.7150 244° Southwest 429 494 36,000  Level FlightAware
03:05PM 38.2001 -83.8285 245° Southwest 429 494 36,000  Level FlightAware ADS-B
03:06PM 38.1720 -83.9050 245° Southwest 428 493 36,000  Level FlightAware
03:07PM 38.1267 -84.0260 245° Southwest 429 494 36,000  Level FlightAware ADS-B
03:07PM 38.1006 -84.0962 245° Southwest 428 493 36,000  Level FlightAware ADS-B
03:08PM 38.0732 -84.1702 245° Southwest 428 493 36,000  Level FlightAware ADS-B
03:09PM 38.0327 -84.2789 245° Southwest 427 491 36,000  Level FlightAware ADS-B
03:09PM 37.9923 -84.3866 245° Southwest 426 490 36,000  Level FlightAware ADS-B
03:10PM 37.9666 -84.4548 244° Southwest 423 487 36,000  Level FlightAware ADS-B
03:10PM 37.9400 -84.5251 244° Southwest 423 487 36,000  Level FlightAware ADS-B
03:11PM 37.9141 -84.5934 244° Southwest 422 486 36,000  Level FlightAware ADS-B
03:11PM 37.8885 -84.6609 244° Southwest 422 486 36,000  Level FlightAware ADS-B
03:12PM 37.8632 -84.7284 245° Southwest 420 483 36,000  Level FlightAware ADS-B
03:13PM 37.8341 -84.8053 244° Southwest 419 482 36,000  Level FlightAware ADS-B
03:13PM 37.8048 -84.8823 244° Southwest 417 480 36,000  Level FlightAware ADS-B
03:14PM 37.7782 -84.9518 244° Southwest 415 478 36,000  Level FlightAware ADS-B
03:14PM 37.7528 -85.0175 244° Southwest 412 474 36,000  Level FlightAware ADS-B
03:15PM 37.7276 -85.0829 244° Southwest 411 473 36,000  Level FlightAware ADS-B
03:15PM 37.7021 -85.1491 244° Southwest 410 472 36,000  Level FlightAware ADS-B
03:16PM 37.6767 -85.2155 244° Southwest 412 474 36,000  Level FlightAware ADS-B
03:16PM 37.6504 -85.2835 244° Southwest 415 478 36,000  Level FlightAware ADS-B
03:17PM 37.6174 -85.3684 244° Southwest 415 478 36,000  Level FlightAware ADS-B
03:18PM 37.5756 -85.4763 244° Southwest 414 476 36,000  Level FlightAware ADS-B
03:18PM 37.5429 -85.5605 244° Southwest 413 475 36,000  Level FlightAware ADS-B
03:19PM 37.5159 -85.6294 244° Southwest 412 474 36,000  Level FlightAware ADS-B
03:19PM 37.4890 -85.6983 244° Southwest 412 474 36,000  Level FlightAware ADS-B
03:20PM 37.4629 -85.7650 244° Southwest 413 475 36,000  Level FlightAware ADS-B
03:20PM 37.4374 -85.8297 244° Southwest 415 478 36,000  Level FlightAware ADS-B
03:21PM 37.4114 -85.8956 244° Southwest 418 481 36,000  Level FlightAware ADS-B
03:21PM 37.3851 -85.9620 244° Southwest 417 480 36,000  Level FlightAware ADS-B
03:22PM 37.3560 -86.0357 244° Southwest 417 480 36,000  Level FlightAware ADS-B
03:23PM 37.3067 -86.1597 243° Southwest 415 478 36,000  Level FlightAware ADS-B
03:24PM 37.2700 -86.2520 243° Southwest 415 478 36,000  Level FlightAware
03:24PM 37.2360 -86.3370 243° Southwest 414 476 36,000  Level FlightAware
03:26PM 37.1880 -86.4580 244° Southwest 415 478 36,000  Level FlightAware
03:27PM 37.1240 -86.6170 243° Southwest 414 476 36,000  Level FlightAware
03:27PM 37.0910 -86.6970 243° Southwest 413 475 36,000  Level FlightAware
03:28PM 37.0550 -86.7880 244° Southwest 411 473 36,000  Level FlightAware
03:28PM 37.0363 -86.8330 243° Southwest 412 474 36,000  Level FlightAware ADS-B
03:29PM 37.0083 -86.9017 243° Southwest 410 472 36,000  Level FlightAware ADS-B
03:29PM 36.9820 -86.9650 243° Southwest 410 472 36,000  Level FlightAware
03:30PM 36.9500 -87.0450 243° Southwest 411 473 36,000  Level FlightAware
03:31PM 36.9080 -87.1470 243° Southwest 413 475 36,000  Level FlightAware
03:31PM 36.8700 -87.2390 243° Southwest 414 476 36,000  Level FlightAware
03:32PM 36.8390 -87.3150 243° Southwest 415 478 36,000  Level FlightAware
03:33PM 36.8000 -87.4090 243° Southwest 416 479 36,000  Level FlightAware
03:33PM 36.7750 -87.4690 243° Southwest 417 480 36,000  Level FlightAware
03:34PM 36.7420 -87.5490 243° Southwest 418 481 36,000  Level FlightAware
03:35PM 36.7050 -87.6390 243° Southwest 418 481 36,000  Level FlightAware
03:35PM 36.6630 -87.7390 242° Southwest 419 482 36,000  Level FlightAware
03:36PM 36.6240 -87.8320 242° Southwest 419 482 36,000  Level FlightAware
03:37PM 36.5920 -87.9090 243° Southwest 420 483 36,000  Level FlightAware
03:37PM 36.5490 -88.0110 242° Southwest 420 483 36,000  Level FlightAware
03:38PM 36.5130 -88.0970 243° Southwest 420 483 36,000  Level FlightAware
03:39PM 36.4730 -88.1900 242° Southwest 420 483 36,000  Level FlightAware
03:40PM 36.4340 -88.2830 242° Southwest 417 480 36,000  Level FlightAware
03:41PM 36.4140 -88.3310 243° Southwest 416 479 36,000  Level FlightAware
03:41PM 36.3830 -88.4020 242° Southwest 416 479 36,000  Level FlightAware
03:42PM 36.3480 -88.4850 242° Southwest 416 479 36,000  Level FlightAware
03:43PM 36.3200 -88.5490 242° Southwest 416 479 36,000  Level FlightAware
03:43PM 36.2830 -88.6350 242° Southwest 416 479 36,000  Level FlightAware
03:44PM 36.2550 -88.7000 242° Southwest 416 479 36,000  Level FlightAware
03:45PM 36.2200 -88.7820 242° Southwest 416 479 36,000  Level FlightAware
03:45PM 36.1910 -88.8500 242° Southwest 416 479 36,000  Level FlightAware
03:46PM 36.1550 -88.9340 242° Southwest 416 479 36,000  Level FlightAware
03:47PM 36.1260 -89.0020 242° Southwest 416 479 36,000  Level FlightAware
03:48PM 36.0890 -89.0880 242° Southwest 416 479 36,000  Level FlightAware
03:48PM 36.0620 -89.1510 242° Southwest 416 479 36,000  Level FlightAware
03:49PM 36.0260 -89.2330 242° Southwest 416 479 36,000  Level FlightAware
03:49PM 36.0060 -89.2810 243° Southwest 416 479 36,000 420 Level FlightAware
03:53PM 35.6820 -90.0070 241° Southwest 403 464 38,000 360 Climbing FlightAware
03:54PM 35.6370 -90.1080 241° Southwest 403 464 38,000  Level FlightAware
03:55PM 35.5980 -90.1930 241° Southwest 403 464 38,000  Level FlightAware
03:56PM 35.5710 -90.2530 241° Southwest 403 464 38,000  Level FlightAware
03:57PM 35.5350 -90.3330 241° Southwest 403 464 38,000  Level FlightAware
03:57PM 35.5070 -90.3960 241° Southwest 403 464 38,000  Level FlightAware
03:58PM 35.4700 -90.4780 241° Southwest 403 464 38,000  Level FlightAware
03:59PM 35.4420 -90.5390 241° Southwest 403 464 38,000  Level FlightAware
03:59PM 35.4080 -90.6150 241° Southwest 403 464 38,000  Level FlightAware
04:00PM 35.3710 -90.6970 241° Southwest 403 464 38,000  Level FlightAware
04:01PM 35.3410 -90.7620 241° Southwest 403 464 38,000  Level FlightAware
04:01PM 35.3150 -90.8210 242° Southwest 403 464 38,000  Level FlightAware
04:02PM 35.2780 -90.9030 241° Southwest 403 464 38,000  Level FlightAware
04:03PM 35.2490 -90.9650 240° Southwest 403 464 38,000  Level FlightAware
04:03PM 35.1678 -91.1394 240° Southwest 397 457 38,000  Level Memphis Center
04:04PM 35.1106 -91.2683 242° Southwest 397 457 38,000  Level Memphis Center
04:05PM 35.0594 -91.3819 241° Southwest 388 447 38,000  Level Memphis Center
04:06PM 35.0231 -91.4831 246° West 381 438 38,000  Level Memphis Center
04:07PM 34.9844 -91.6067 249° West 381 438 38,000  Level Memphis Center
04:08PM 34.9436 -91.7250 247° West 381 438 38,000  Level Memphis Center
04:09PM 34.9006 -91.8458 247° West 381 438 38,000  Level Memphis Center
04:10PM 34.8614 -91.9667 248° West 387 445 38,000  Level Memphis Center
04:11PM 34.8181 -92.0925 247° West 392 451 38,000  Level Memphis Center
04:17PM 34.5570 -92.8470 247° West 397 457 38,000  Level FlightAware
04:18PM 34.5310 -92.9220 247° West 397 457 38,000  Level FlightAware
04:20PM 34.4400 -93.1800 247° West 392 451 38,000  Level FlightAware
04:21PM 34.3970 -93.3020 247° West 394 453 38,000  Level FlightAware
04:22PM 34.3690 -93.3800 247° West 394 453 38,000  Level FlightAware
04:23PM 34.3190 -93.5230 247° West 397 457 38,000  Level FlightAware
04:24PM 34.2940 -93.6110 251° West 396 456 38,000  Level FlightAware
04:28PM 34.1470 -94.1410 252° West 395 455 38,000  Level FlightAware
04:28PM 34.1270 -94.2120 251° West 395 455 38,000  Level FlightAware
04:29PM 34.1080 -94.2780 251° West 395 455 38,000  Level FlightAware
04:30PM 34.0740 -94.3950 251° West 395 455 38,000  Level FlightAware
04:31PM 34.0560 -94.4590 251° West 395 455 38,000  Level FlightAware
04:32PM 34.0320 -94.5440 251° West 395 455 38,000  Level FlightAware
04:32PM 34.0140 -94.6080 251° West 395 455 38,000  Level FlightAware
04:33PM 33.9690 -94.7590 250° West 379 436 38,000 -240 Level FlightAware
04:34PM 33.9360 -94.8540 247° West 382 440 37,700 -960 Descending FlightAware
04:34PM 33.9100 -94.9320 248° West 391 450 36,700 -2,160 Descending FlightAware
04:35PM 33.8810 -95.0170 248° West 395 455 34,800 -2,400 Descending FlightAware
04:36PM 33.8500 -95.1080 248° West 408 470 33,300 -1,500 Descending FlightAware
04:36PM 33.8230 -95.1870 248° West 426 490 32,800 -1,560 Descending FlightAware
04:37PM 33.7890 -95.2860 248° West 430 495 31,200 -2,760 Descending FlightAware
04:38PM 33.7600 -95.3710 248° West 436 502 29,100 -3,120 Descending FlightAware
04:39PM 33.7210 -95.4830 247° West 453 521 26,700 -2,820 Descending FlightAware
04:39PM 33.6880 -95.5790 248° West 460 529 24,900 -2,760 Descending FlightAware
04:40PM 33.6440 -95.7070 248° West 422 486 22,300 -2,580 Descending FlightAware
04:41PM 33.6130 -95.7950 247° West 394 453 20,700 -2,280 Descending FlightAware
04:42PM 33.5840 -95.8760 247° West 413 475 19,200 -2,400 Descending FlightAware
04:42PM 33.5510 -95.9700 247° West 417 480 17,400 -2,580 Descending FlightAware
04:43PM 33.5190 -96.0630 248° West 400 460 15,500 -2,520 Descending FlightAware
04:44PM 33.4910 -96.1420 247° West 385 443 13,900 -2,400 Descending FlightAware
04:44PM 33.4630 -96.2190 246° West 375 432 12,300 -2,280 Descending FlightAware
04:45PM 33.4470 -96.2650 247° West 368 423 11,500 -1,140 Descending FlightAware
04:45PM 33.4240 -96.3290 247° West 334 384 11,200 -660 Descending FlightAware
04:46PM 33.3940 -96.4040 244° Southwest 303 349 10,600 -840 Descending FlightAware
04:47PM 33.3660 -96.4390 226° Southwest 290 334 10,100 -1,020 Descending FlightAware
04:47PM 33.3420 -96.4670 224° Southwest 285 328 9,700 -1,020 Descending FlightAware
04:48PM 33.3160 -96.5000 227° Southwest 285 328 9,200 -1,440 Descending FlightAware
04:48PM 33.3090 -96.5220 249° West 289 333 8,700 -1,620 Descending FlightAware
04:48PM 33.3010 -96.5610 256° West 286 329 8,100 -1,440 Descending FlightAware
04:48PM 33.2980 -96.5810 260° West 285 328 7,800 -1,500 Descending FlightAware
04:49PM 33.2880 -96.6320 257° West 282 325 7,000 -1,380 Descending FlightAware
04:49PM 33.2810 -96.6670 257° West 279 321 6,500 -1,380 Descending FlightAware
04:50PM 33.2730 -96.7110 258° West 275 316 5,800 -1,500 Descending FlightAware
04:50PM 33.2710 -96.7230 259° West 276 318 5,600 -1,380 Descending FlightAware
04:51PM 33.2610 -96.7790 258° West 277 319 4,800 -960 Descending FlightAware
04:51PM 33.2570 -96.8000 257° West 276 318 4,800  Level FlightAware
04:51PM 33.2490 -96.8430 257° West 273 314 4,800  Level FlightAware
04:52PM 33.2430 -96.8760 258° West 272 313 4,800  Level FlightAware
04:52PM 33.2310 -96.9190 252° West 272 313 4,800  Level FlightAware
04:52PM 33.2240 -96.9400 248° West 256 295 4,800  Level FlightAware
04:53PM 33.2130 -96.9730 248° West 236 272 4,800  Level FlightAware
04:53PM 33.2000 -96.9880 224° Southwest 225 259 4,800  Level FlightAware
04:54PM 33.1740 -97.0050 209° Southwest 221 254 4,800 60 Level FlightAware
04:54PM 33.1490 -97.0090 188° South 217 250 4,900 -300 Climbing FlightAware
04:55PM 33.1160 -97.0090 180° South 194 223 4,500 -900 Descending FlightAware
04:56PM 33.0510 -97.0090 180° South 184 212 3,300 -1,020 Descending FlightAware
04:56PM 33.0280 -97.0090 180° South 186 214 2,800 -960 Descending FlightAware
04:57PM 32.9880 -97.0090 180° South 169 194 2,100 -900 Descending FlightAware
04:58PM 32.9720 -97.0090 180° South 158 182 1,800 -840 Descending FlightAware
04:58PM 32.9500 -97.0090 180° South 150 173 1,400 -540 Descending FlightAware
04:59PM 32.9320 -97.0090 180° South 151 174 1,300 -240 Descending FlightAware